sensor_id;sensor_type;location;lat;lon;timestamp;pressure;altitude;pressure_sealevel;temperature;humidity
18504;BME280;9381;54.244;10.074;2022-11-22T00:00:21;99489.88;;;-0.42;100.00
18504;BME280;9381;54.244;10.074;2022-11-22T00:05:21;99493.81;;;-0.30;100.00
18504;BME280;9381;54.244;10.074;2022-11-22T00:10:22;99504.44;;;-0.30;100.00
18504;BME280;9381;54.244;10.074;2022-11-22T00:15:22;99497.09;;;-0.28;100.00
18504;BME280;9381;54.244;10.074;2022-11-22T00:20:23;99464.53;;;-0.22;100.00
18504;BME280;9381;54.244;10.074;2022-11-22T00:25:23;99474.31;;;-0.23;100.00
18504;BME280;9381;54.244;10.074;2022-11-22T00:30:23;99456.34;;;-0.21;100.00
18504;BME280;9381;54.244;10.074;2022-11-22T00:35:24;99457.13;;;-0.12;100.00
18504;BME280;9381;54.244;10.074;2022-11-22T00:40:24;99446.56;;;-0.20;100.00
18504;BME280;9381;54.244;10.074;2022-11-22T00:45:24;99454.22;;;-0.25;100.00
18504;BME280;9381;54.244;10.074;2022-11-22T00:50:25;99455.72;;;-0.23;100.00
18504;BME280;9381;54.244;10.074;2022-11-22T00:55:25;99470.41;;;-0.12;100.00
18504;BME280;9381;54.244;10.074;2022-11-22T01:00:25;99465.91;;;-0.12;100.00
18504;BME280;9381;54.244;10.074;2022-11-22T01:05:26;99462.25;;;-0.11;100.00
18504;BME280;9381;54.244;10.074;2022-11-22T01:10:26;99462.13;;;-0.17;100.00
18504;BME280;9381;54.244;10.074;2022-11-22T01:15:26;99451.50;;;-0.17;100.00
18504;BME280;9381;54.244;10.074;2022-11-22T01:20:27;99435.09;;;-0.21;100.00
18504;BME280;9381;54.244;10.074;2022-11-22T01:25:29;99432.44;;;-0.21;100.00
18504;BME280;9381;54.244;10.074;2022-11-22T01:30:30;99415.63;;;-0.13;100.00
18504;BME280;9381;54.244;10.074;2022-11-22T01:35:30;99416.59;;;-0.14;100.00
18504;BME280;9381;54.244;10.074;2022-11-22T01:40:30;99434.88;;;-0.11;100.00
18504;BME280;9381;54.244;10.074;2022-11-22T01:50:34;99415.41;;;-0.12;100.00
18504;BME280;9381;54.244;10.074;2022-11-22T01:55:35;99410.75;;;0.04;100.00
18504;BME280;9381;54.244;10.074;2022-11-22T02:00:37;99422.94;;;-0.01;100.00
18504;BME280;9381;54.244;10.074;2022-11-22T02:05:37;99411.13;;;0.01;100.00
18504;BME280;9381;54.244;10.074;2022-11-22T02:10:42;99393.94;;;0.12;100.00
18504;BME280;9381;54.244;10.074;2022-11-22T02:15:42;99401.25;;;0.10;100.00
18504;BME280;9381;54.244;10.074;2022-11-22T02:20:43;99402.91;;;0.11;100.00
18504;BME280;9381;54.244;10.074;2022-11-22T02:25:49;99398.50;;;0.03;100.00
18504;BME280;9381;54.244;10.074;2022-11-22T02:30:49;99388.22;;;0.15;100.00
18504;BME280;9381;54.244;10.074;2022-11-22T02:35:50;99376.03;;;0.20;100.00
18504;BME280;9381;54.244;10.074;2022-11-22T02:40:57;99372.91;;;0.31;100.00
18504;BME280;9381;54.244;10.074;2022-11-22T02:46:07;99377.69;;;0.21;100.00
18504;BME280;9381;54.244;10.074;2022-11-22T02:51:08;99360.63;;;0.16;100.00
18504;BME280;9381;54.244;10.074;2022-11-22T02:56:08;99361.47;;;0.16;100.00
18504;BME280;9381;54.244;10.074;2022-11-22T03:01:09;99339.75;;;0.27;100.00
18504;BME280;9381;54.244;10.074;2022-11-22T03:06:10;99333.97;;;0.24;100.00
18504;BME280;9381;54.244;10.074;2022-11-22T03:11:10;99317.56;;;0.20;100.00
18504;BME280;9381;54.244;10.074;2022-11-22T03:16:10;99333.50;;;0.35;100.00
18504;BME280;9381;54.244;10.074;2022-11-22T03:21:11;99335.34;;;0.34;100.00
18504;BME280;9381;54.244;10.074;2022-11-22T03:26:11;99325.06;;;0.31;100.00
18504;BME280;9381;54.244;10.074;2022-11-22T03:31:11;99315.53;;;0.37;100.00
18504;BME280;9381;54.244;10.074;2022-11-22T03:36:12;99324.31;;;0.37;100.00
18504;BME280;9381;54.244;10.074;2022-11-22T03:41:12;99323.94;;;0.40;100.00
18504;BME280;9381;54.244;10.074;2022-11-22T03:46:15;99310.00;;;0.38;100.00
18504;BME280;9381;54.244;10.074;2022-11-22T03:51:15;99311.84;;;0.52;100.00
18504;BME280;9381;54.244;10.074;2022-11-22T03:56:15;99297.53;;;0.53;100.00
18504;BME280;9381;54.244;10.074;2022-11-22T04:01:16;99308.53;;;0.50;100.00
18504;BME280;9381;54.244;10.074;2022-11-22T04:06:16;99300.56;;;0.50;100.00
18504;BME280;9381;54.244;10.074;2022-11-22T04:11:17;99286.75;;;0.61;100.00
18504;BME280;9381;54.244;10.074;2022-11-22T04:16:17;99280.81;;;0.59;100.00
18504;BME280;9381;54.244;10.074;2022-11-22T04:21:17;99275.56;;;0.66;100.00
18504;BME280;9381;54.244;10.074;2022-11-22T04:26:32;99300.81;;;0.55;100.00
18504;BME280;9381;54.244;10.074;2022-11-22T04:31:33;99293.09;;;0.60;100.00
18504;BME280;9381;54.244;10.074;2022-11-22T04:36:52;99303.97;;;0.65;100.00
18504;BME280;9381;54.244;10.074;2022-11-22T04:41:53;99297.28;;;0.69;100.00
18504;BME280;9381;54.244;10.074;2022-11-22T04:47:14;99300.59;;;0.71;100.00
18504;BME280;9381;54.244;10.074;2022-11-22T04:52:38;99313.78;;;0.79;100.00
18504;BME280;9381;54.244;10.074;2022-11-22T04:57:54;99304.56;;;0.82;100.00
18504;BME280;9381;54.244;10.074;2022-11-22T05:02:55;99298.56;;;0.94;100.00
18504;BME280;9381;54.244;10.074;2022-11-22T05:07:59;99286.38;;;0.85;100.00
18504;BME280;9381;54.244;10.074;2022-11-22T05:13:00;99315.94;;;0.90;100.00
18504;BME280;9381;54.244;10.074;2022-11-22T05:18:00;99313.44;;;0.89;100.00
18504;BME280;9381;54.244;10.074;2022-11-22T05:23:00;99326.56;;;0.90;100.00
18504;BME280;9381;54.244;10.074;2022-11-22T05:28:20;99314.06;;;0.91;100.00
18504;BME280;9381;54.244;10.074;2022-11-22T05:33:20;99302.16;;;1.08;100.00
18504;BME280;9381;54.244;10.074;2022-11-22T05:38:20;99303.00;;;1.08;100.00
18504;BME280;9381;54.244;10.074;2022-11-22T05:43:21;99287.84;;;1.09;100.00
18504;BME280;9381;54.244;10.074;2022-11-22T05:48:21;99311.63;;;1.10;100.00
18504;BME280;9381;54.244;10.074;2022-11-22T05:53:21;99298.25;;;1.04;100.00
18504;BME280;9381;54.244;10.074;2022-11-22T05:58:21;99293.59;;;1.12;100.00
18504;BME280;9381;54.244;10.074;2022-11-22T06:03:22;99308.06;;;1.24;100.00
18504;BME280;9381;54.244;10.074;2022-11-22T06:08:22;99296.28;;;1.33;100.00
18504;BME280;9381;54.244;10.074;2022-11-22T06:13:23;99299.56;;;1.35;100.00
18504;BME280;9381;54.244;10.074;2022-11-22T06:18:23;99296.06;;;1.35;100.00
18504;BME280;9381;54.244;10.074;2022-11-22T06:23:23;99297.53;;;1.37;100.00
18504;BME280;9381;54.244;10.074;2022-11-22T06:28:24;99298.63;;;1.49;100.00
18504;BME280;9381;54.244;10.074;2022-11-22T06:33:25;99294.09;;;1.43;100.00
18504;BME280;9381;54.244;10.074;2022-11-22T06:38:25;99303.78;;;1.51;100.00
18504;BME280;9381;54.244;10.074;2022-11-22T06:43:27;99314.47;;;1.57;100.00
18504;BME280;9381;54.244;10.074;2022-11-22T06:48:29;99327.63;;;1.59;100.00
18504;BME280;9381;54.244;10.074;2022-11-22T06:53:31;99307.38;;;1.64;100.00
18504;BME280;9381;54.244;10.074;2022-11-22T06:58:32;99317.00;;;1.65;100.00
18504;BME280;9381;54.244;10.074;2022-11-22T07:03:34;99328.75;;;1.77;100.00
18504;BME280;9381;54.244;10.074;2022-11-22T07:08:35;99327.78;;;1.78;100.00
18504;BME280;9381;54.244;10.074;2022-11-22T07:13:36;99320.00;;;1.83;100.00
18504;BME280;9381;54.244;10.074;2022-11-22T07:18:37;99318.75;;;1.79;100.00
18504;BME280;9381;54.244;10.074;2022-11-22T07:23:38;99322.91;;;1.88;100.00
18504;BME280;9381;54.244;10.074;2022-11-22T07:28:39;99326.09;;;1.77;100.00
18504;BME280;9381;54.244;10.074;2022-11-22T07:33:40;99328.25;;;1.88;100.00
18504;BME280;9381;54.244;10.074;2022-11-22T07:38:41;99336.44;;;1.87;100.00
18504;BME280;9381;54.244;10.074;2022-11-22T07:43:42;99327.56;;;1.80;100.00
18504;BME280;9381;54.244;10.074;2022-11-22T07:48:42;99320.34;;;1.74;100.00
18504;BME280;9381;54.244;10.074;2022-11-22T07:53:43;99321.59;;;1.78;100.00
18504;BME280;9381;54.244;10.074;2022-11-22T07:58:43;99314.28;;;1.86;100.00
18504;BME280;9381;54.244;10.074;2022-11-22T08:03:44;99310.97;;;1.84;100.00
18504;BME280;9381;54.244;10.074;2022-11-22T08:08:44;99305.66;;;1.84;100.00
18504;BME280;9381;54.244;10.074;2022-11-22T08:13:45;99309.75;;;1.80;100.00
18504;BME280;9381;54.244;10.074;2022-11-22T08:18:47;99302.66;;;1.94;100.00
18504;BME280;9381;54.244;10.074;2022-11-22T08:23:48;99304.00;;;1.83;100.00
18504;BME280;9381;54.244;10.074;2022-11-22T08:28:48;99315.09;;;1.87;100.00
18504;BME280;9381;54.244;10.074;2022-11-22T08:33:51;99315.56;;;1.97;100.00
18504;BME280;9381;54.244;10.074;2022-11-22T08:38:52;99310.44;;;1.95;100.00
18504;BME280;9381;54.244;10.074;2022-11-22T08:43:53;99299.75;;;1.95;100.00
18504;BME280;9381;54.244;10.074;2022-11-22T08:48:53;99308.22;;;2.05;100.00
18504;BME280;9381;54.244;10.074;2022-11-22T08:53:54;99321.81;;;2.10;100.00
18504;BME280;9381;54.244;10.074;2022-11-22T08:58:54;99343.28;;;2.02;100.00
18504;BME280;9381;54.244;10.074;2022-11-22T09:03:55;99340.22;;;2.05;100.00
18504;BME280;9381;54.244;10.074;2022-11-22T09:08:55;99344.34;;;2.08;100.00
18504;BME280;9381;54.244;10.074;2022-11-22T09:13:56;99347.63;;;2.10;100.00
18504;BME280;9381;54.244;10.074;2022-11-22T09:18:56;99354.59;;;2.04;100.00
18504;BME280;9381;54.244;10.074;2022-11-22T09:23:57;99335.72;;;2.06;100.00
18504;BME280;9381;54.244;10.074;2022-11-22T09:28:57;99346.84;;;2.09;100.00
18504;BME280;9381;54.244;10.074;2022-11-22T09:33:57;99335.75;;;2.12;100.00
18504;BME280;9381;54.244;10.074;2022-11-22T09:38:58;99342.75;;;2.13;100.00
18504;BME280;9381;54.244;10.074;2022-11-22T09:49:56;99351.88;;;1.98;100.00
18504;BME280;9381;54.244;10.074;2022-11-22T09:55:05;99350.53;;;2.08;100.00
18504;BME280;9381;54.244;10.074;2022-11-22T10:00:22;99348.72;;;2.15;100.00
18504;BME280;9381;54.244;10.074;2022-11-22T10:05:30;99342.16;;;2.18;100.00
18504;BME280;9381;54.244;10.074;2022-11-22T10:10:41;99339.44;;;2.11;100.00
18504;BME280;9381;54.244;10.074;2022-11-22T10:20:43;99357.66;;;2.01;100.00
18504;BME280;9381;54.244;10.074;2022-11-22T10:25:46;99353.81;;;2.10;100.00
18504;BME280;9381;54.244;10.074;2022-11-22T10:42:05;99360.66;;;2.26;100.00
18504;BME280;9381;54.244;10.074;2022-11-22T10:58:25;99362.97;;;2.29;100.00
18504;BME280;9381;54.244;10.074;2022-11-22T11:03:32;99356.59;;;2.30;100.00
18504;BME280;9381;54.244;10.074;2022-11-22T11:08:53;99356.06;;;2.47;100.00
18504;BME280;9381;54.244;10.074;2022-11-22T11:14:11;99358.72;;;2.47;100.00
18504;BME280;9381;54.244;10.074;2022-11-22T11:19:20;99370.03;;;2.49;100.00
18504;BME280;9381;54.244;10.074;2022-11-22T11:24:22;99368.03;;;2.58;100.00
18504;BME280;9381;54.244;10.074;2022-11-22T11:34:26;99360.66;;;2.60;100.00
18504;BME280;9381;54.244;10.074;2022-11-22T11:39:32;99372.56;;;2.64;100.00
18504;BME280;9381;54.244;10.074;2022-11-22T11:44:34;99362.09;;;2.62;100.00
18504;BME280;9381;54.244;10.074;2022-11-22T11:49:35;99371.31;;;2.60;100.00
18504;BME280;9381;54.244;10.074;2022-11-22T11:54:44;99382.59;;;2.55;100.00
18504;BME280;9381;54.244;10.074;2022-11-22T11:59:47;99377.28;;;2.68;100.00
18504;BME280;9381;54.244;10.074;2022-11-22T12:04:55;99386.56;;;2.72;100.00
18504;BME280;9381;54.244;10.074;2022-11-22T12:09:58;99379.97;;;2.68;100.00
18504;BME280;9381;54.244;10.074;2022-11-22T12:15:15;99371.34;;;2.66;100.00
18504;BME280;9381;54.244;10.074;2022-11-22T12:20:24;99378.50;;;2.59;100.00
18504;BME280;9381;54.244;10.074;2022-11-22T12:25:37;99368.84;;;2.58;100.00
18504;BME280;9381;54.244;10.074;2022-11-22T12:30:40;99377.09;;;2.63;100.00
18504;BME280;9381;54.244;10.074;2022-11-22T12:35:42;99389.97;;;2.53;100.00
18504;BME280;9381;54.244;10.074;2022-11-22T12:40:48;99394.34;;;2.67;100.00
18504;BME280;9381;54.244;10.074;2022-11-22T12:45:54;99388.81;;;2.69;100.00
18504;BME280;9381;54.244;10.074;2022-11-22T12:51:01;99370.56;;;2.72;100.00
18504;BME280;9381;54.244;10.074;2022-11-22T13:01:47;99353.50;;;2.73;100.00
18504;BME280;9381;54.244;10.074;2022-11-22T13:06:55;99354.13;;;2.75;100.00
18504;BME280;9381;54.244;10.074;2022-11-22T13:12:25;99364.22;;;2.79;100.00
18504;BME280;9381;54.244;10.074;2022-11-22T13:17:33;99361.13;;;2.76;100.00
18504;BME280;9381;54.244;10.074;2022-11-22T13:28:04;99359.50;;;2.81;100.00
18504;BME280;9381;54.244;10.074;2022-11-22T13:33:23;99358.25;;;2.78;100.00
18504;BME280;9381;54.244;10.074;2022-11-22T13:38:25;99349.84;;;2.80;100.00
18504;BME280;9381;54.244;10.074;2022-11-22T13:43:48;99360.72;;;2.79;100.00
18504;BME280;9381;54.244;10.074;2022-11-22T13:59:31;99350.06;;;2.85;100.00
18504;BME280;9381;54.244;10.074;2022-11-22T14:04:36;99352.53;;;2.87;100.00
18504;BME280;9381;54.244;10.074;2022-11-22T14:31:10;99404.94;;;2.88;100.00
18504;BME280;9381;54.244;10.074;2022-11-22T14:46:34;99415.66;;;3.01;100.00
18504;BME280;9381;54.244;10.074;2022-11-22T14:51:37;99403.91;;;2.89;100.00
18504;BME280;9381;54.244;10.074;2022-11-22T14:56:41;99407.59;;;2.88;100.00
18504;BME280;9381;54.244;10.074;2022-11-22T15:02:26;99398.94;;;2.86;100.00
18504;BME280;9381;54.244;10.074;2022-11-22T15:07:55;99424.00;;;2.85;100.00
18504;BME280;9381;54.244;10.074;2022-11-22T15:18:20;99413.56;;;2.90;100.00
18504;BME280;9381;54.244;10.074;2022-11-22T15:23:26;99407.59;;;2.88;100.00
18504;BME280;9381;54.244;10.074;2022-11-22T15:28:27;99414.34;;;2.90;100.00
18504;BME280;9381;54.244;10.074;2022-11-22T15:33:30;99429.31;;;2.78;100.00
18504;BME280;9381;54.244;10.074;2022-11-22T15:38:31;99437.97;;;2.87;100.00
18504;BME280;9381;54.244;10.074;2022-11-22T15:43:33;99436.28;;;2.79;100.00
18504;BME280;9381;54.244;10.074;2022-11-22T15:48:38;99436.97;;;2.88;100.00
18504;BME280;9381;54.244;10.074;2022-11-22T15:53:41;99419.91;;;2.89;100.00
18504;BME280;9381;54.244;10.074;2022-11-22T15:58:47;99413.75;;;2.95;100.00
18504;BME280;9381;54.244;10.074;2022-11-22T16:03:55;99405.31;;;2.85;100.00
18504;BME280;9381;54.244;10.074;2022-11-22T16:09:01;99411.06;;;2.82;100.00
18504;BME280;9381;54.244;10.074;2022-11-22T16:14:02;99419.88;;;2.82;100.00
18504;BME280;9381;54.244;10.074;2022-11-22T16:19:23;99424.97;;;2.71;100.00
18504;BME280;9381;54.244;10.074;2022-11-22T16:24:27;99415.69;;;2.67;100.00
18504;BME280;9381;54.244;10.074;2022-11-22T16:29:33;99430.06;;;2.66;100.00
18504;BME280;9381;54.244;10.074;2022-11-22T16:34:34;99441.59;;;2.73;100.00
18504;BME280;9381;54.244;10.074;2022-11-22T16:39:34;99444.50;;;2.78;100.00
18504;BME280;9381;54.244;10.074;2022-11-22T16:44:35;99435.88;;;2.82;100.00
18504;BME280;9381;54.244;10.074;2022-11-22T16:49:35;99430.16;;;2.79;100.00
18504;BME280;9381;54.244;10.074;2022-11-22T16:54:36;99427.63;;;2.71;100.00
18504;BME280;9381;54.244;10.074;2022-11-22T16:59:36;99430.25;;;2.65;100.00
18504;BME280;9381;54.244;10.074;2022-11-22T17:04:36;99429.25;;;2.66;100.00
18504;BME280;9381;54.244;10.074;2022-11-22T17:09:37;99438.66;;;2.62;100.00
18504;BME280;9381;54.244;10.074;2022-11-22T17:14:38;99438.84;;;2.60;100.00
18504;BME280;9381;54.244;10.074;2022-11-22T17:19:38;99447.72;;;2.67;100.00
18504;BME280;9381;54.244;10.074;2022-11-22T17:24:39;99454.25;;;2.58;100.00
18504;BME280;9381;54.244;10.074;2022-11-22T17:29:40;99456.53;;;2.61;100.00
18504;BME280;9381;54.244;10.074;2022-11-22T17:34:41;99465.31;;;2.55;100.00
18504;BME280;9381;54.244;10.074;2022-11-22T17:39:41;99457.97;;;2.64;100.00
18504;BME280;9381;54.244;10.074;2022-11-22T17:44:41;99475.00;;;2.63;100.00
18504;BME280;9381;54.244;10.074;2022-11-22T17:49:42;99478.06;;;2.60;100.00
18504;BME280;9381;54.244;10.074;2022-11-22T17:54:42;99482.63;;;2.66;100.00
18504;BME280;9381;54.244;10.074;2022-11-22T17:59:42;99492.66;;;2.64;100.00
18504;BME280;9381;54.244;10.074;2022-11-22T18:04:44;99497.41;;;2.68;100.00
18504;BME280;9381;54.244;10.074;2022-11-22T18:09:44;99500.91;;;2.69;100.00
18504;BME280;9381;54.244;10.074;2022-11-22T18:14:49;99500.31;;;2.67;100.00
18504;BME280;9381;54.244;10.074;2022-11-22T18:19:50;99505.06;;;2.71;100.00
18504;BME280;9381;54.244;10.074;2022-11-22T18:24:50;99522.16;;;2.83;100.00
18504;BME280;9381;54.244;10.074;2022-11-22T18:29:51;99518.41;;;2.71;100.00
18504;BME280;9381;54.244;10.074;2022-11-22T18:34:51;99516.34;;;2.73;100.00
18504;BME280;9381;54.244;10.074;2022-11-22T18:39:51;99507.34;;;2.80;100.00
18504;BME280;9381;54.244;10.074;2022-11-22T18:44:52;99504.03;;;2.72;100.00
18504;BME280;9381;54.244;10.074;2022-11-22T18:49:52;99513.53;;;2.81;100.00
18504;BME280;9381;54.244;10.074;2022-11-22T18:54:52;99510.91;;;2.60;100.00
18504;BME280;9381;54.244;10.074;2022-11-22T18:59:55;99503.22;;;2.78;100.00
18504;BME280;9381;54.244;10.074;2022-11-22T19:04:55;99511.72;;;2.88;100.00
18504;BME280;9381;54.244;10.074;2022-11-22T19:09:56;99508.56;;;2.78;100.00
18504;BME280;9381;54.244;10.074;2022-11-22T19:14:57;99501.09;;;2.67;100.00
18504;BME280;9381;54.244;10.074;2022-11-22T19:19:58;99500.75;;;2.70;100.00
18504;BME280;9381;54.244;10.074;2022-11-22T19:24:58;99506.22;;;2.62;100.00
18504;BME280;9381;54.244;10.074;2022-11-22T19:29:58;99514.72;;;2.72;100.00
18504;BME280;9381;54.244;10.074;2022-11-22T19:34:59;99507.72;;;2.71;100.00
18504;BME280;9381;54.244;10.074;2022-11-22T19:39:59;99497.78;;;2.59;100.00
18504;BME280;9381;54.244;10.074;2022-11-22T19:45:00;99504.81;;;2.66;100.00
18504;BME280;9381;54.244;10.074;2022-11-22T19:50:00;99504.84;;;2.72;100.00
18504;BME280;9381;54.244;10.074;2022-11-22T19:55:01;99511.22;;;2.78;100.00
18504;BME280;9381;54.244;10.074;2022-11-22T20:00:01;99503.63;;;2.75;100.00
18504;BME280;9381;54.244;10.074;2022-11-22T20:05:04;99498.53;;;2.80;100.00
18504;BME280;9381;54.244;10.074;2022-11-22T20:10:05;99496.25;;;2.77;100.00
18504;BME280;9381;54.244;10.074;2022-11-22T20:15:06;99508.97;;;2.75;100.00
18504;BME280;9381;54.244;10.074;2022-11-22T20:20:06;99500.53;;;2.72;100.00
18504;BME280;9381;54.244;10.074;2022-11-22T20:25:07;99507.94;;;2.76;100.00
18504;BME280;9381;54.244;10.074;2022-11-22T20:30:08;99510.59;;;2.76;100.00
18504;BME280;9381;54.244;10.074;2022-11-22T20:35:09;99503.47;;;2.83;100.00
18504;BME280;9381;54.244;10.074;2022-11-22T20:40:09;99507.56;;;2.79;100.00
18504;BME280;9381;54.244;10.074;2022-11-22T20:45:09;99507.94;;;2.76;100.00
18504;BME280;9381;54.244;10.074;2022-11-22T20:50:10;99509.84;;;2.82;100.00
18504;BME280;9381;54.244;10.074;2022-11-22T20:55:10;99503.41;;;2.70;100.00
18504;BME280;9381;54.244;10.074;2022-11-22T21:00:11;99510.59;;;2.76;100.00
18504;BME280;9381;54.244;10.074;2022-11-22T21:05:11;99495.44;;;2.77;100.00
18504;BME280;9381;54.244;10.074;2022-11-22T21:10:12;99510.25;;;2.79;100.00
18504;BME280;9381;54.244;10.074;2022-11-22T21:15:12;99513.13;;;2.84;100.00
18504;BME280;9381;54.244;10.074;2022-11-22T21:20:14;99509.59;;;2.77;100.00
18504;BME280;9381;54.244;10.074;2022-11-22T21:25:14;99499.31;;;2.74;100.00
18504;BME280;9381;54.244;10.074;2022-11-22T21:30:16;99511.88;;;2.80;100.00
18504;BME280;9381;54.244;10.074;2022-11-22T21:35:16;99513.56;;;2.87;100.00
18504;BME280;9381;54.244;10.074;2022-11-22T21:40:17;99528.75;;;2.87;100.00
18504;BME280;9381;54.244;10.074;2022-11-22T21:45:17;99533.31;;;2.93;100.00
18504;BME280;9381;54.244;10.074;2022-11-22T21:50:17;99524.25;;;2.87;100.00
18504;BME280;9381;54.244;10.074;2022-11-22T21:55:17;99525.16;;;3.01;100.00
18504;BME280;9381;54.244;10.074;2022-11-22T22:00:18;99526.75;;;2.95;100.00
18504;BME280;9381;54.244;10.074;2022-11-22T22:05:18;99521.59;;;2.94;100.00
18504;BME280;9381;54.244;10.074;2022-11-22T22:10:19;99523.72;;;3.05;100.00
18504;BME280;9381;54.244;10.074;2022-11-22T22:15:19;99527.19;;;2.99;100.00
18504;BME280;9381;54.244;10.074;2022-11-22T22:20:20;99513.44;;;3.02;100.00
18504;BME280;9381;54.244;10.074;2022-11-22T22:25:21;99509.91;;;2.95;100.00
18504;BME280;9381;54.244;10.074;2022-11-22T22:30:21;99516.53;;;3.05;100.00
18504;BME280;9381;54.244;10.074;2022-11-22T22:35:22;99519.63;;;3.09;100.00
18504;BME280;9381;54.244;10.074;2022-11-22T22:40:22;99501.72;;;3.03;100.00
18504;BME280;9381;54.244;10.074;2022-11-22T22:45:22;99512.06;;;3.12;100.00
18504;BME280;9381;54.244;10.074;2022-11-22T22:50:23;99521.84;;;2.99;100.00
18504;BME280;9381;54.244;10.074;2022-11-22T22:55:23;99509.56;;;3.11;100.00
18504;BME280;9381;54.244;10.074;2022-11-22T23:00:23;99517.41;;;3.12;100.00
18504;BME280;9381;54.244;10.074;2022-11-22T23:05:24;99528.91;;;3.13;100.00
18504;BME280;9381;54.244;10.074;2022-11-22T23:10:24;99518.59;;;3.03;100.00
18504;BME280;9381;54.244;10.074;2022-11-22T23:15:25;99534.22;;;3.13;100.00
18504;BME280;9381;54.244;10.074;2022-11-22T23:20:25;99529.31;;;3.16;100.00
18504;BME280;9381;54.244;10.074;2022-11-22T23:25:25;99528.13;;;3.25;100.00
18504;BME280;9381;54.244;10.074;2022-11-22T23:30:25;99516.41;;;3.26;100.00
18504;BME280;9381;54.244;10.074;2022-11-22T23:35:26;99512.09;;;3.19;100.00
18504;BME280;9381;54.244;10.074;2022-11-22T23:40:26;99507.50;;;3.06;100.00
18504;BME280;9381;54.244;10.074;2022-11-22T23:45:26;99508.78;;;3.17;100.00
18504;BME280;9381;54.244;10.074;2022-11-22T23:50:27;99500.50;;;3.05;100.00
18504;BME280;9381;54.244;10.074;2022-11-22T23:55:28;99506.50;;;3.14;100.00
